Time;durP1;ratioP1;P1;durP2;ratioP2;P2;SDS_P1;SDS_P2;PMS_P1;PMS_P2;Temp;Humidity;BMP_temperature;BMP_pressure;BME280_temperature;BME280_humidity;BME280_pressure;Samples;Min_cycle;Max_cycle;Signal;HPM_P1;HPM_P2
2022/03/03 00:00:15;;;;;;;44.67;21.60;;;3.70;99.90;;;;;;5033606;28;20053;-86
2022/03/03 00:02:42;;;;;;;43.42;21.60;;;3.70;99.90;;;;;;5051109;28;20081;-86
2022/03/03 00:05:09;;;;;;;43.92;22.75;;;3.60;99.90;;;;;;5033959;28;20049;-88
2022/03/03 00:07:36;;;;;;;43.97;21.33;;;3.60;99.90;;;;;;5033953;28;20537;-85
2022/03/03 00:10:06;;;;;;;41.97;20.55;;;3.60;99.90;;;;;;5032622;28;20053;-86
2022/03/03 00:12:32;;;;;;;43.90;20.88;;;3.50;99.90;;;;;;5016973;28;20411;-86
2022/03/03 00:14:57;;;;;;;42.65;20.70;;;3.90;99.90;;;;;;5017443;28;20053;-86
2022/03/03 00:17:23;;;;;;;39.55;19.98;;;3.40;99.90;;;;;;5013690;28;20555;-85
2022/03/03 00:19:49;;;;;;;44.03;18.95;;;3.80;99.90;;;;;;4997881;28;20555;-86
2022/03/03 00:22:15;;;;;;;43.42;18.95;;;3.80;99.90;;;;;;5013288;28;20042;-86
2022/03/03 00:24:41;;;;;;;38.95;17.17;;;3.50;99.90;;;;;;4999003;28;20503;-85
2022/03/03 00:27:07;;;;;;;;;;;3.30;99.90;;;;;;4997772;28;20049;-85
2022/03/03 00:29:33;;;;;;;40.50;19.77;;;3.30;99.90;;;;;;4997281;28;19921;-85
2022/03/03 00:31:58;;;;;;;41.58;19.98;;;4.20;99.90;;;;;;4998528;28;20478;-86
2022/03/03 00:34:24;;;;;;;39.83;18.30;;;3.20;99.90;;;;;;5009280;28;20135;-85
2022/03/03 00:36:50;;;;;;;40.17;19.75;;;3.90;99.90;;;;;;5016381;28;20041;-85
2022/03/03 00:39:16;;;;;;;38.47;18.08;;;4.00;99.90;;;;;;4999842;28;20045;-85
2022/03/03 00:41:41;;;;;;;38.80;17.38;;;3.10;99.90;;;;;;5016415;28;20048;-85
2022/03/03 00:44:09;;;;;;;41.90;18.83;;;3.10;99.90;;;;;;5000741;28;20136;-85
2022/03/03 00:46:36;;;;;;;36.75;17.83;;;3.70;99.90;;;;;;5016087;28;20053;-85
2022/03/03 00:49:03;;;;;;;43.60;20.45;;;3.00;99.90;;;;;;5007426;28;20065;-86
2022/03/03 00:51:29;;;;;;;39.25;19.23;;;3.00;99.90;;;;;;5012771;28;20050;-86
2022/03/03 00:53:55;;;;;;;41.40;18.40;;;4.00;99.90;;;;;;5015910;28;20045;-86
2022/03/03 00:56:22;;;;;;;38.03;17.38;;;3.80;99.90;;;;;;5000184;28;20053;-86
2022/03/03 00:58:48;;;;;;;;;;;3.20;99.90;;;;;;5016212;28;20044;-85
2022/03/03 01:01:15;;;;;;;40.72;19.80;;;2.90;99.90;;;;;;5032501;28;20011;-86
2022/03/03 01:03:41;;;;;;;34.10;15.88;;;2.90;99.90;;;;;;5032779;28;20049;-85
2022/03/03 01:06:08;;;;;;;36.05;16.90;;;3.30;99.90;;;;;;5016433;28;20103;-85
2022/03/03 01:08:34;;;;;;;36.10;16.35;;;2.90;99.90;;;;;;5015692;28;20053;-86
2022/03/03 01:10:59;;;;;;;36.60;17.65;;;3.40;99.90;;;;;;5016595;28;20099;-85
2022/03/03 01:13:25;;;;;;;35.78;17.27;;;2.80;99.90;;;;;;5031726;28;20049;-85
2022/03/03 01:15:53;;;;;;;37.65;17.75;;;2.80;99.90;;;;;;5016085;28;20088;-85
2022/03/03 01:18:19;;;;;;;34.60;15.93;;;2.80;99.90;;;;;;5015157;28;20096;-86
2022/03/03 01:20:45;;;;;;;40.45;18.38;;;3.40;99.90;;;;;;5031676;28;20411;-85
2022/03/03 01:23:11;;;;;;;36.58;17.75;;;2.70;99.90;;;;;;4996486;28;20048;-86
2022/03/03 01:25:37;;;;;;;37.30;17.45;;;2.60;99.90;;;;;;5022195;28;20037;-85
2022/03/03 01:28:02;;;;;;;37.92;16.83;;;3.10;99.90;;;;;;5032178;28;20049;-85
2022/03/03 01:30:28;;;;;;;39.67;19.27;;;2.60;99.90;;;;;;5015358;28;20088;-85
2022/03/03 01:32:54;;;;;;;46.10;19.45;;;2.50;99.90;;;;;;5032202;28;20100;-86
2022/03/03 01:35:19;;;;;;;35.53;17.27;;;3.30;99.90;;;;;;5015721;28;20395;-86
2022/03/03 01:37:45;;;;;;;36.30;17.13;;;2.50;99.90;;;;;;4999108;28;20045;-86
2022/03/03 01:40:11;;;;;;;39.72;17.77;;;3.30;99.90;;;;;;5032044;28;20136;-85
2022/03/03 01:42:37;;;;;;;38.22;19.08;;;2.30;99.90;;;;;;5014792;28;20620;-85
2022/03/03 01:45:04;;;;;;;38.45;18.00;;;3.40;99.90;;;;;;4999289;28;20041;-85
2022/03/03 01:47:30;;;;;;;38.03;16.05;;;2.20;99.90;;;;;;5014936;28;20060;-85
2022/03/03 01:49:57;;;;;;;38.97;18.38;;;3.10;99.90;;;;;;5015616;28;20041;-86
2022/03/03 01:52:24;;;;;;;38.88;18.65;;;2.90;99.90;;;;;;5011624;28;20038;-85
2022/03/03 01:54:50;;;;;;;40.33;19.02;;;2.10;99.90;;;;;;4996101;28;20148;-85
2022/03/03 01:57:17;;;;;;;;;;;3.00;99.90;;;;;;5012530;28;20394;-85
2022/03/03 01:59:43;;;;;;;38.90;17.35;;;2.30;99.90;;;;;;4995617;28;19921;-85
2022/03/03 02:02:13;;;;;;;38.00;18.42;;;2.00;99.90;;;;;;5013281;28;20469;-85
2022/03/03 02:04:40;;;;;;;37.53;18.65;;;2.90;99.90;;;;;;5031385;28;20264;-85
2022/03/03 02:07:06;;;;;;;37.22;17.55;;;2.60;99.90;;;;;;5031338;28;20045;-85
2022/03/03 02:09:33;;;;;;;39.10;18.58;;;2.00;99.90;;;;;;5031274;28;20475;-87
2022/03/03 02:11:59;;;;;;;35.10;17.27;;;2.30;99.90;;;;;;5031448;28;20045;-85
2022/03/03 02:14:25;;;;;;;38.30;19.33;;;2.40;99.90;;;;;;5014744;28;20103;-86
2022/03/03 02:16:51;;;;;;;36.10;17.67;;;1.90;99.90;;;;;;4998942;28;20085;-86
2022/03/03 02:19:21;;;;;;;35.38;17.73;;;2.90;99.90;;;;;;4998965;28;20052;-85
2022/03/03 02:21:48;;;;;;;38.40;18.42;;;2.00;99.90;;;;;;5024709;28;20046;-87
2022/03/03 02:24:14;;;;;;;36.45;18.25;;;3.20;99.90;;;;;;5012025;28;20050;-86
2022/03/03 02:26:41;;;;;;;41.88;17.17;;;1.90;99.90;;;;;;4995073;28;20075;-85
2022/03/03 02:29:07;;;;;;;33.42;16.55;;;1.90;99.90;;;;;;4996135;28;20084;-86
2022/03/03 02:31:33;;;;;;;41.75;18.65;;;1.80;99.90;;;;;;4994390;28;20088;-87
2022/03/03 02:33:59;;;;;;;41.20;19.08;;;1.80;99.90;;;;;;5011621;28;20110;-85
2022/03/03 02:36:27;;;;;;;35.55;17.08;;;1.80;99.90;;;;;;4994436;28;20108;-86
2022/03/03 02:38:56;;;;;;;38.97;18.08;;;2.70;99.90;;;;;;4995357;28;20041;-86
2022/03/03 02:41:24;;;;;;;34.75;17.65;;;1.70;99.90;;;;;;5011565;28;20053;-87
2022/03/03 02:43:50;;;;;;;35.67;17.63;;;2.60;99.90;;;;;;5011176;28;20068;-86
2022/03/03 02:46:15;;;;;;;35.97;18.77;;;1.60;99.90;;;;;;4998195;28;20498;-86
2022/03/03 02:48:41;;;;;;;35.50;16.88;;;1.80;99.90;;;;;;4982080;28;20049;-85
2022/03/03 02:51:08;;;;;;;34.63;17.88;;;1.60;99.90;;;;;;5016804;28;20049;-86
2022/03/03 02:53:35;;;;;;;34.17;17.38;;;2.50;99.90;;;;;;5017785;28;20048;-86
2022/03/03 02:56:02;;;;;;;41.13;19.02;;;2.40;99.90;;;;;;5034721;28;20375;-85
2022/03/03 02:58:28;;;;;;;41.03;18.58;;;1.50;99.90;;;;;;5033277;28;20045;-86
2022/03/03 03:00:54;;;;;;;38.13;19.20;;;1.80;99.90;;;;;;5034323;28;20084;-87
2022/03/03 03:03:20;;;;;;;38.90;17.73;;;2.50;99.90;;;;;;5017957;28;20528;-85
2022/03/03 03:05:47;;;;;;;38.30;18.70;;;1.40;99.90;;;;;;5033718;28;20045;-85
2022/03/03 03:08:13;;;;;;;42.65;19.75;;;2.00;99.90;;;;;;5033506;28;20597;-86
2022/03/03 03:10:40;;;;;;;41.40;19.33;;;1.90;99.90;;;;;;5029500;28;20053;-85
2022/03/03 03:13:07;;;;;;;41.60;18.63;;;1.30;99.90;;;;;;5001052;28;20053;-85
2022/03/03 03:15:34;;;;;;;41.15;18.63;;;1.30;99.90;;;;;;5033893;28;20052;-85
2022/03/03 03:18:15;;;;;;;40.90;19.42;;;1.70;99.90;;;;;;5018020;28;20084;-85
2022/03/03 03:20:44;;;;;;;38.42;19.77;;;1.20;99.90;;;;;;5017650;28;20131;-85
2022/03/03 03:23:11;;;;;;;41.63;20.13;;;1.20;99.90;;;;;;5017625;28;20144;-85
2022/03/03 03:25:38;;;;;;;37.55;18.15;;;2.30;99.90;;;;;;5000813;28;20060;-85
2022/03/03 03:28:05;;;;;;;;;;;1.80;99.90;;;;;;5034417;28;20041;-86
2022/03/03 03:30:31;;;;;;;39.35;18.05;;;2.30;99.90;;;;;;5033842;28;19921;-85
2022/03/03 03:32:57;;;;;;;41.75;18.98;;;1.10;99.90;;;;;;5001367;28;20064;-86
2022/03/03 03:35:23;;;;;;;34.35;17.50;;;1.20;99.90;;;;;;5017893;28;20475;-85
2022/03/03 03:37:48;;;;;;;;;;;1.10;99.90;;;;;;5017500;28;20045;-85
2022/03/03 03:40:15;;;;;;;42.65;19.45;;;1.80;99.90;;;;;;5017594;28;19970;-85
2022/03/03 03:42:40;;;;;;;39.50;19.33;;;1.00;99.90;;;;;;5030065;28;20049;-85
2022/03/03 03:45:08;;;;;;;37.58;18.75;;;1.00;99.90;;;;;;5018095;28;20433;-85
2022/03/03 03:47:33;;;;;;;36.17;17.52;;;1.00;99.90;;;;;;5013783;28;20054;-85
2022/03/03 03:50:02;;;;;;;43.05;19.73;;;1.50;99.90;;;;;;5014820;28;20100;-85
2022/03/03 03:52:28;;;;;;;37.90;19.10;;;1.90;99.90;;;;;;5023130;28;20045;-87
2022/03/03 03:54:54;;;;;;;39.90;18.63;;;1.00;99.90;;;;;;5034442;28;20041;-85
2022/03/03 03:57:20;;;;;;;44.17;19.42;;;1.00;99.90;;;;;;5017870;28;20487;-85
2022/03/03 03:59:46;;;;;;;38.97;18.45;;;1.00;99.90;;;;;;5017442;28;20049;-85
2022/03/03 04:02:11;;;;;;;37.92;16.50;;;2.20;99.90;;;;;;5001416;28;20556;-85
2022/03/03 04:04:37;;;;;;;39.05;18.58;;;1.50;99.90;;;;;;5034023;28;20132;-85
2022/03/03 04:07:03;;;;;;;35.60;18.05;;;1.00;99.90;;;;;;5033974;28;20167;-85
2022/03/03 04:09:29;;;;;;;36.38;18.63;;;2.00;99.90;;;;;;4984008;28;20072;-86
2022/03/03 04:11:54;;;;;;;37.10;17.48;;;1.00;99.90;;;;;;4997632;28;20049;-85
2022/03/03 04:14:20;;;;;;;37.10;17.30;;;1.20;99.90;;;;;;4965663;28;20077;-85
2022/03/03 04:16:46;;;;;;;37.83;18.15;;;1.00;99.90;;;;;;5014029;28;20487;-85
2022/03/03 04:19:11;;;;;;;37.60;17.23;;;1.90;99.90;;;;;;5014138;28;20129;-86
2022/03/03 04:21:37;;;;;;;33.97;15.90;;;2.10;99.90;;;;;;5031443;28;20041;-85
2022/03/03 04:24:03;;;;;;;34.13;16.55;;;1.00;99.90;;;;;;5017522;28;20141;-85
2022/03/03 04:26:29;;;;;;;;;;;1.00;99.90;;;;;;5001391;28;20055;-87
2022/03/03 04:28:54;;;;;;;32.20;16.52;;;1.00;99.90;;;;;;5017185;28;20019;-85
2022/03/03 04:31:20;;;;;;;35.95;16.17;;;1.10;99.90;;;;;;5017207;28;20386;-86
2022/03/03 04:33:46;;;;;;;35.90;18.00;;;0.90;99.90;;;;;;5000856;28;20132;-86
2022/03/03 04:36:12;;;;;;;33.13;16.38;;;0.90;99.90;;;;;;5016462;28;20517;-85
2022/03/03 04:38:38;;;;;;;36.35;17.42;;;0.90;99.90;;;;;;5033021;28;20137;-85
2022/03/03 04:41:03;;;;;;;31.77;14.13;;;0.90;99.90;;;;;;5017281;28;20136;-85
2022/03/03 04:43:29;;;;;;;33.50;14.10;;;0.80;99.90;;;;;;5000282;28;20049;-85
2022/03/03 04:45:55;;;;;;;37.47;15.93;;;1.10;99.90;;;;;;5016787;28;20387;-85
2022/03/03 04:48:21;;;;;;;32.28;14.90;;;1.60;99.90;;;;;;5032848;28;20103;-86
2022/03/03 04:50:47;;;;;;;30.23;15.18;;;1.60;99.90;;;;;;5000553;28;20081;-85
2022/03/03 04:53:13;;;;;;;31.55;16.80;;;0.70;99.90;;;;;;5016734;28;20116;-86
2022/03/03 04:55:40;;;;;;;29.58;13.52;;;0.90;99.90;;;;;;4983428;28;20479;-85
2022/03/03 04:58:05;;;;;;;35.30;15.35;;;0.60;99.90;;;;;;5000008;28;20068;-86
2022/03/03 05:00:31;;;;;;;28.67;13.70;;;0.60;99.90;;;;;;5033100;28;20046;-85
2022/03/03 05:02:57;;;;;;;32.42;14.73;;;1.40;99.90;;;;;;4999922;28;20038;-85
2022/03/03 05:05:22;;;;;;;35.33;15.43;;;1.80;99.90;;;;;;5000519;28;20553;-86
2022/03/03 05:07:48;;;;;;;33.58;15.10;;;0.50;99.90;;;;;;5016042;28;20045;-85
2022/03/03 05:10:14;;;;;;;33.10;15.00;;;1.50;99.90;;;;;;5033163;28;20520;-86
2022/03/03 05:12:39;;;;;;;28.42;14.18;;;0.40;99.90;;;;;;5015731;28;20610;-86
2022/03/03 05:15:06;;;;;;;30.75;14.73;;;0.40;99.90;;;;;;5032934;28;20041;-85
2022/03/03 05:17:31;;;;;;;34.58;17.17;;;0.40;99.90;;;;;;5016336;28;20096;-85
2022/03/03 05:19:57;;;;;;;35.03;14.85;;;0.50;99.90;;;;;;5032853;28;20073;-85
2022/03/03 05:22:23;;;;;;;36.17;16.52;;;1.30;99.90;;;;;;5014443;28;20487;-85
2022/03/03 05:24:50;;;;;;;33.65;15.68;;;1.00;99.90;;;;;;5012877;28;20042;-87
2022/03/03 05:27:16;;;;;;;34.55;16.52;;;1.20;99.90;;;;;;5003432;28;20448;-85
2022/03/03 05:29:42;;;;;;;;;;;1.60;99.90;;;;;;5015909;28;20046;-85
2022/03/03 05:32:07;;;;;;;32.75;15.60;;;0.20;99.90;;;;;;5032570;28;19947;-85
2022/03/03 05:34:33;;;;;;;34.20;16.77;;;0.20;99.90;;;;;;5016004;28;20048;-85
2022/03/03 05:37:00;;;;;;;31.58;15.18;;;0.20;99.90;;;;;;5031672;28;20049;-86
2022/03/03 05:39:27;;;;;;;36.47;16.75;;;1.30;99.90;;;;;;5032194;28;20048;-86
2022/03/03 05:41:56;;;;;;;38.08;17.42;;;0.10;99.90;;;;;;5015460;28;20079;-85
2022/03/03 05:44:22;;;;;;;32.13;15.23;;;0.20;99.90;;;;;;4999479;28;20092;-85
2022/03/03 05:46:48;;;;;;;;;;;0.70;99.90;;;;;;5008050;28;20068;-86
2022/03/03 05:49:16;;;;;;;33.88;14.70;;;0.10;99.90;;;;;;4998448;28;19925;-85
2022/03/03 05:51:42;;;;;;;34.55;17.23;;;0.50;99.90;;;;;;5012900;28;20057;-85
2022/03/03 05:54:07;;;;;;;34.88;16.77;;;0.00;99.90;;;;;;5010323;28;20049;-85
2022/03/03 05:56:42;;;;;;;35.35;17.45;;;0.60;99.90;;;;;;4996139;28;20057;-86
2022/03/03 05:59:09;;;;;;;38.00;17.80;;;0.00;99.90;;;;;;5010457;28;20054;-85
2022/03/03 06:01:38;;;;;;;34.03;16.33;;;0.00;99.90;;;;;;5010946;28;20547;-86
2022/03/03 06:04:06;;;;;;;33.33;17.08;;;0.00;99.90;;;;;;5007625;28;20053;-87
2022/03/03 06:06:36;;;;;;;35.78;17.20;;;0.20;99.90;;;;;;5011966;28;20053;-86
2022/03/03 06:09:15;;;;;;;35.78;18.35;;;-0.10;99.90;;;;;;5010556;28;20057;-87
2022/03/03 06:12:06;;;;;;;36.78;17.35;;;0.90;99.90;;;;;;5009661;28;20053;-89
2022/03/03 06:14:44;;;;;;;38.58;17.83;;;-0.10;99.90;;;;;;5010548;28;20053;-86
2022/03/03 06:17:10;;;;;;;35.97;17.50;;;-0.10;99.90;;;;;;5010589;28;20064;-86
2022/03/03 06:19:42;;;;;;;35.63;18.05;;;0.80;99.90;;;;;;5010532;28;20410;-86
2022/03/03 06:22:11;;;;;;;37.08;17.98;;;-0.10;99.90;;;;;;5010175;28;20049;-86
2022/03/03 06:24:37;;;;;;;38.13;16.85;;;-0.20;99.90;;;;;;5000228;28;20501;-85
2022/03/03 06:27:04;;;;;;;42.33;17.20;;;-0.10;99.90;;;;;;5006896;28;20046;-86
2022/03/03 06:29:31;;;;;;;36.75;17.52;;;0.20;99.90;;;;;;5031381;28;20398;-85
2022/03/03 06:31:58;;;;;;;37.10;17.55;;;0.40;99.90;;;;;;5031187;28;20049;-85
2022/03/03 06:34:23;;;;;;;37.55;17.42;;;-0.20;99.90;;;;;;4999099;28;20068;-85
2022/03/03 06:36:52;;;;;;;37.72;17.83;;;-0.20;99.90;;;;;;5014515;28;20474;-85
2022/03/03 06:39:18;;;;;;;34.67;18.00;;;-0.20;99.90;;;;;;4998562;28;20045;-85
2022/03/03 06:41:44;;;;;;;32.25;15.25;;;0.40;99.90;;;;;;5014511;28;20072;-88
2022/03/03 06:44:10;;;;;;;32.70;17.33;;;-0.10;99.90;;;;;;4998595;28;20049;-85
2022/03/03 06:46:36;;;;;;;;;;;-0.10;99.90;;;;;;5015348;28;20057;-85
2022/03/03 06:49:03;;;;;;;34.38;16.45;;;-0.10;99.90;;;;;;5018068;28;19983;-86
2022/03/03 06:51:38;;;;;;;35.30;15.48;;;1.00;99.90;;;;;;4994644;28;20488;-86
2022/03/03 06:54:05;;;;;;;37.67;17.92;;;-0.10;99.90;;;;;;5009872;28;20057;-85
2022/03/03 06:56:36;;;;;;;32.45;15.85;;;1.10;99.90;;;;;;4998517;28;20060;-86
2022/03/03 06:59:02;;;;;;;37.58;15.10;;;1.30;99.90;;;;;;5012292;28;20140;-86
2022/03/03 07:01:29;;;;;;;37.00;15.80;;;0.70;99.90;;;;;;5011652;28;20566;-85
2022/03/03 07:03:58;;;;;;;27.35;14.20;;;0.10;99.90;;;;;;4997953;28;20124;-85
2022/03/03 07:06:25;;;;;;;34.80;16.33;;;0.20;99.90;;;;;;4995850;28;20263;-86
2022/03/03 07:08:55;;;;;;;31.90;15.32;;;0.20;99.90;;;;;;5010089;28;20057;-89
2022/03/03 07:11:23;;;;;;;33.40;15.98;;;1.10;99.90;;;;;;4997413;28;20061;-86
2022/03/03 07:13:49;;;;;;;32.22;15.80;;;0.20;99.90;;;;;;4994354;28;20038;-86
2022/03/03 07:16:30;;;;;;;33.50;14.63;;;0.20;99.90;;;;;;5010791;28;20506;-86
2022/03/03 07:19:02;;;;;;;34.92;16.48;;;0.30;99.90;;;;;;4996460;28;20476;-88
2022/03/03 07:22:16;;;;;;;25.33;12.68;;;0.30;99.90;;;;;;5014882;28;20133;-86
2022/03/03 07:24:57;;;;;;;34.30;15.82;;;0.40;99.90;;;;;;4981633;28;20418;-85
2022/03/03 07:27:25;;;;;;;33.45;14.85;;;1.40;99.90;;;;;;5017584;28;20052;-85
2022/03/03 07:30:05;;;;;;;35.70;16.45;;;0.40;99.90;;;;;;5011003;28;20049;-87
2022/03/03 07:32:51;;;;;;;28.65;14.40;;;0.50;99.90;;;;;;5018521;28;20054;-86
2022/03/03 07:35:17;;;;;;;32.88;16.35;;;1.40;99.90;;;;;;5023711;28;20508;-85
2022/03/03 07:38:00;;;;;;;34.28;15.25;;;0.50;99.90;;;;;;4985125;28;20061;-86
2022/03/03 07:40:31;;;;;;;31.27;15.23;;;0.60;99.90;;;;;;5034742;28;20050;-86
2022/03/03 07:43:00;;;;;;;31.27;14.98;;;1.60;99.90;;;;;;5016944;28;20167;-86
2022/03/03 07:45:27;;;;;;;34.90;15.57;;;0.60;99.90;;;;;;5034259;28;20050;-86
2022/03/03 07:47:57;;;;;;;34.45;17.58;;;1.00;99.90;;;;;;5033449;28;20057;-87
2022/03/03 07:50:24;;;;;;;28.48;14.13;;;1.60;99.90;;;;;;5018165;28;20049;-86
2022/03/03 07:52:50;;;;;;;29.38;14.82;;;0.80;99.90;;;;;;5050635;28;20172;-87
2022/03/03 07:55:16;;;;;;;;;;;1.20;99.90;;;;;;5018540;28;20053;-85
2022/03/03 07:58:02;;;;;;;34.13;16.73;;;0.90;99.90;;;;;;5001257;28;19928;-86
2022/03/03 08:00:33;;;;;;;34.33;15.48;;;0.90;99.90;;;;;;5034134;28;20506;-87
2022/03/03 08:03:04;;;;;;;42.90;18.30;;;1.00;99.90;;;;;;5017379;28;20136;-86
2022/03/03 08:05:31;;;;;;;32.55;15.10;;;1.00;99.90;;;;;;5017836;28;20049;-86
2022/03/03 08:07:59;;;;;;;33.45;16.67;;;1.70;99.90;;;;;;5016919;28;20041;-86
2022/03/03 08:10:27;;;;;;;35.35;16.40;;;1.10;99.90;;;;;;5034152;28;20049;-86
2022/03/03 08:12:56;;;;;;;30.70;15.95;;;1.90;99.90;;;;;;5033541;28;20071;-87
2022/03/03 08:15:22;;;;;;;30.50;15.43;;;1.70;99.90;;;;;;5016909;28;20053;-86
2022/03/03 08:17:53;;;;;;;33.22;16.35;;;1.30;99.90;;;;;;5017240;28;20041;-86
2022/03/03 08:20:21;;;;;;;34.28;16.92;;;1.30;99.90;;;;;;5033745;28;20491;-86
2022/03/03 08:22:47;;;;;;;33.70;15.27;;;1.40;99.90;;;;;;5033405;28;20083;-85
2022/03/03 08:25:14;;;;;;;34.63;16.33;;;1.40;99.90;;;;;;5008991;28;20050;-85
2022/03/03 08:27:41;;;;;;;33.97;14.90;;;1.50;99.90;;;;;;5011738;28;20115;-85
2022/03/03 08:30:08;;;;;;;31.23;15.23;;;1.50;99.90;;;;;;5025594;28;20052;-84
2022/03/03 08:32:48;;;;;;;31.05;15.07;;;1.60;99.90;;;;;;5031049;28;20045;-84
2022/03/03 08:35:15;;;;;;;31.75;15.43;;;1.70;99.90;;;;;;5033106;28;20402;-84
2022/03/03 08:37:51;;;;;;;29.08;14.30;;;1.70;99.90;;;;;;5033179;28;20045;-85
2022/03/03 08:40:17;;;;;;;32.55;14.52;;;1.80;99.90;;;;;;5015875;28;20536;-88
2022/03/03 08:42:49;;;;;;;34.97;15.93;;;2.00;99.90;;;;;;5011657;28;20054;-85
2022/03/03 08:45:19;;;;;;;31.75;15.80;;;1.90;99.90;;;;;;5010943;28;20057;-86
2022/03/03 08:47:56;;;;;;;32.28;16.20;;;2.00;99.90;;;;;;5011576;28;20558;-85
2022/03/03 08:50:23;;;;;;;30.67;15.90;;;2.10;99.90;;;;;;5022823;28;20052;-86
2022/03/03 08:52:49;;;;;;;31.88;15.77;;;2.20;99.90;;;;;;5014270;28;20188;-86
2022/03/03 08:55:15;;;;;;;36.13;16.13;;;2.20;99.90;;;;;;5014699;28;20676;-86
2022/03/03 08:57:41;;;;;;;28.85;15.70;;;2.30;99.90;;;;;;5024647;28;20491;-86
2022/03/03 09:00:10;;;;;;;29.35;15.25;;;2.90;99.90;;;;;;5011161;28;20052;-85
2022/03/03 09:02:36;;;;;;;35.17;16.15;;;2.40;99.90;;;;;;5012073;28;20092;-86
2022/03/03 09:05:03;;;;;;;30.77;14.88;;;2.50;99.90;;;;;;5008130;28;20092;-86
2022/03/03 09:07:30;;;;;;;30.98;16.00;;;2.50;99.90;;;;;;5030383;28;20057;-86
2022/03/03 09:09:56;;;;;;;28.13;15.20;;;2.80;99.90;;;;;;5025954;28;20563;-90
2022/03/03 09:12:22;;;;;;;29.65;16.80;;;2.80;99.90;;;;;;5025903;28;20049;-85
2022/03/03 09:14:47;;;;;;;36.38;16.52;;;2.80;99.90;;;;;;5023345;28;20046;-86
2022/03/03 09:17:13;;;;;;;27.17;15.35;;;3.00;99.90;;;;;;4990146;28;20042;-84
2022/03/03 09:19:39;;;;;;;28.77;14.50;;;3.90;99.90;;;;;;4991232;28;20042;-84
2022/03/03 09:22:04;;;;;;;26.45;15.30;;;3.60;99.90;;;;;;4999619;28;20076;-84
2022/03/03 09:24:31;;;;;;;29.40;15.63;;;3.20;99.90;;;;;;4997980;28;20457;-84
2022/03/03 09:26:57;;;;;;;28.83;14.13;;;3.30;99.90;;;;;;5017321;28;20276;-84
2022/03/03 09:29:23;;;;;;;29.35;12.25;;;3.30;99.90;;;;;;5002470;28;20037;-84
2022/03/03 09:31:50;;;;;;;24.55;12.70;;;4.20;99.90;;;;;;5029626;28;20046;-84
2022/03/03 09:34:15;;;;;;;27.38;14.95;;;3.60;99.90;;;;;;5013370;28;20060;-84
2022/03/03 09:36:42;;;;;;;29.90;14.55;;;3.70;99.90;;;;;;5013060;28;20053;-84
2022/03/03 09:39:07;;;;;;;;;;;4.20;99.90;;;;;;5007190;28;20046;-84
2022/03/03 09:41:33;;;;;;;25.65;14.13;;;3.90;99.90;;;;;;5012545;28;20024;-85
2022/03/03 09:43:59;;;;;;;24.52;13.65;;;3.90;99.90;;;;;;4978350;28;20049;-84
2022/03/03 09:46:24;;;;;;;29.05;14.07;;;4.00;99.90;;;;;;5015917;28;20084;-84
2022/03/03 09:48:51;;;;;;;27.25;14.13;;;4.10;99.90;;;;;;5032999;28;20057;-84
2022/03/03 09:51:17;;;;;;;28.33;14.30;;;4.70;99.90;;;;;;4992281;28;20045;-85
2022/03/03 09:53:43;;;;;;;26.73;13.77;;;4.20;99.90;;;;;;5016271;28;20071;-84
2022/03/03 09:56:09;;;;;;;;;;;4.40;99.90;;;;;;5033637;28;20044;-84
2022/03/03 09:58:35;;;;;;;28.63;14.30;;;4.80;99.90;;;;;;5015794;28;19935;-84
2022/03/03 10:01:01;;;;;;;26.23;12.30;;;4.70;99.90;;;;;;5033093;28;20048;-85
2022/03/03 10:03:34;;;;;;;25.17;13.80;;;4.60;99.90;;;;;;5032266;28;20033;-82
2022/03/03 10:06:01;;;;;;;28.70;13.32;;;4.70;99.90;;;;;;5012748;28;20157;-82
2022/03/03 10:08:28;;;;;;;23.95;13.35;;;5.10;99.90;;;;;;5031601;28;20033;-84
2022/03/03 10:11:00;;;;;;;28.52;12.40;;;4.90;99.90;;;;;;5015999;28;20092;-83
2022/03/03 10:13:42;;;;;;;24.60;14.63;;;5.30;99.90;;;;;;5012568;28;20045;-83
2022/03/03 10:16:08;;;;;;;25.50;13.65;;;5.00;99.90;;;;;;5031762;28;20390;-83
2022/03/03 10:18:34;;;;;;;25.77;13.07;;;5.20;99.90;;;;;;5028928;28;20043;-84
2022/03/03 10:21:02;;;;;;;23.15;13.00;;;5.30;99.90;;;;;;5032526;28;20053;-83
2022/03/03 10:23:31;;;;;;;23.77;12.77;;;5.60;99.90;;;;;;5032607;28;20102;-83
2022/03/03 10:25:59;;;;;;;22.30;13.25;;;5.50;99.90;;;;;;5013958;28;20406;-82
2022/03/03 10:28:27;;;;;;;21.00;12.80;;;5.60;99.90;;;;;;5029706;28;20049;-82
2022/03/03 10:30:59;;;;;;;23.10;13.35;;;5.70;99.90;;;;;;5033057;28;20147;-84
2022/03/03 10:33:45;;;;;;;24.20;13.55;;;5.70;99.90;;;;;;5015899;28;20052;-84
2022/03/03 10:36:12;;;;;;;23.38;13.68;;;5.80;99.90;;;;;;5031697;28;20413;-83
2022/03/03 10:38:59;;;;;;;22.00;12.40;;;5.90;99.90;;;;;;5016786;28;20045;-83
2022/03/03 10:41:40;;;;;;;22.00;12.52;;;6.10;99.90;;;;;;5032404;28;20249;-83
2022/03/03 10:44:12;;;;;;;21.58;11.73;;;6.30;99.90;;;;;;5015563;28;20504;-84
2022/03/03 10:46:58;;;;;;;21.00;12.38;;;6.30;99.90;;;;;;5016534;28;20063;-83
2022/03/03 10:49:25;;;;;;;23.05;11.55;;;6.50;99.90;;;;;;5032668;28;20052;-83
2022/03/03 10:51:54;;;;;;;21.10;12.40;;;6.60;99.90;;;;;;4999539;28;20202;-83
2022/03/03 10:54:20;;;;;;;21.45;12.07;;;6.70;99.90;;;;;;5013891;28;20047;-83
2022/03/03 10:56:47;;;;;;;;;;;6.70;99.90;;;;;;4996292;28;20056;-83
2022/03/03 10:59:22;;;;;;;22.38;11.20;;;6.80;99.90;;;;;;5012390;28;20470;-83
2022/03/03 11:01:49;;;;;;;19.30;10.50;;;7.10;99.90;;;;;;5012940;28;20060;-83
2022/03/03 11:04:18;;;;;;;21.58;10.63;;;7.00;99.90;;;;;;4980551;28;20057;-83
2022/03/03 11:06:45;;;;;;;19.33;10.93;;;7.20;98.90;;;;;;5012846;28;20091;-82
2022/03/03 11:09:10;;;;;;;23.50;10.25;;;7.10;99.90;;;;;;5012431;28;20053;-83
2022/03/03 11:11:37;;;;;;;19.77;10.35;;;7.20;98.80;;;;;;4995975;28;20049;-83
2022/03/03 11:14:04;;;;;;;20.42;11.70;;;7.30;98.00;;;;;;5005433;28;20063;-83
2022/03/03 11:16:29;;;;;;;20.65;10.52;;;7.50;97.70;;;;;;4998888;28;20045;-84
2022/03/03 11:18:56;;;;;;;20.98;11.55;;;7.70;96.20;;;;;;5013319;28;20042;-84
2022/03/03 11:21:22;;;;;;;19.65;11.32;;;8.20;96.80;;;;;;4996243;28;20084;-83
2022/03/03 11:23:59;;;;;;;25.08;11.13;;;7.90;96.50;;;;;;5002972;28;20053;-83
2022/03/03 11:26:31;;;;;;;21.00;12.23;;;7.80;94.80;;;;;;4996125;28;20079;-84
2022/03/03 11:29:12;;;;;;;19.77;11.07;;;7.90;96.70;;;;;;5029438;28;20068;-83
2022/03/03 11:31:40;;;;;;;17.33;10.00;;;8.00;96.60;;;;;;5031755;28;20049;-84
2022/03/03 11:34:24;;;;;;;22.52;11.63;;;8.10;96.50;;;;;;5022115;28;20049;-83
2022/03/03 11:36:58;;;;;;;20.25;10.63;;;8.30;96.20;;;;;;5013177;28;20490;-81
2022/03/03 11:39:40;;;;;;;19.27;11.40;;;8.50;96.70;;;;;;5022803;28;20037;-81
2022/03/03 11:42:25;;;;;;;21.35;10.43;;;8.60;94.10;;;;;;5021972;28;20066;-82
2022/03/03 11:44:57;;;;;;;19.65;9.00;;;8.90;91.90;;;;;;5022695;28;20415;-82
2022/03/03 11:47:33;;;;;;;18.27;10.25;;;9.00;90.00;;;;;;5024644;28;20171;-82
2022/03/03 11:50:19;;;;;;;15.82;9.63;;;9.10;81.60;;;;;;5011236;28;20054;-82
2022/03/03 11:53:14;;;;;;;17.45;9.80;;;9.30;77.80;;;;;;5018295;28;20145;-82
2022/03/03 11:55:46;;;;;;;16.92;10.35;;;9.40;82.80;;;;;;5027780;28;20067;-82
2022/03/03 11:58:14;;;;;;;16.48;9.77;;;9.70;90.00;;;;;;4999182;28;20120;-84
2022/03/03 12:00:44;;;;;;;17.30;9.30;;;10.10;92.10;;;;;;5004031;28;20486;-83
2022/03/03 12:03:12;;;;;;;16.77;9.45;;;10.40;90.80;;;;;;5016090;28;20044;-82
2022/03/03 12:05:48;;;;;;;16.50;10.60;;;10.70;93.80;;;;;;5012197;28;20490;-83
2022/03/03 12:08:14;;;;;;;20.23;10.60;;;11.00;93.00;;;;;;5005168;28;20088;-85
2022/03/03 12:11:04;;;;;;;16.52;10.23;;;11.30;94.50;;;;;;5016161;28;20452;-83
2022/03/03 12:13:34;;;;;;;20.15;10.52;;;11.60;82.80;;;;;;5014800;28;20072;-83
2022/03/03 12:16:17;;;;;;;15.75;9.02;;;11.80;87.60;;;;;;5000061;28;20046;-83
2022/03/03 12:18:48;;;;;;;13.23;8.38;;;11.90;78.90;;;;;;5015856;28;20042;-84
2022/03/03 12:21:44;;;;;;;14.68;9.00;;;12.00;79.80;;;;;;5016789;28;20132;-85
2022/03/03 12:24:13;;;;;;;13.93;8.75;;;12.00;71.70;;;;;;5032519;28;20045;-85
2022/03/03 12:26:58;;;;;;;16.58;9.40;;;12.00;68.00;;;;;;5015017;28;20037;-83
2022/03/03 12:29:40;;;;;;;14.00;9.25;;;12.00;70.40;;;;;;5015384;28;20049;-86
2022/03/03 12:32:24;;;;;;;17.05;9.23;;;12.20;69.50;;;;;;5032300;28;20061;-82
2022/03/03 12:34:52;;;;;;;16.00;8.70;;;12.40;65.60;;;;;;5018123;28;20057;-82
2022/03/03 12:37:18;;;;;;;14.07;8.77;;;12.50;68.40;;;;;;5033860;28;20067;-84
2022/03/03 12:39:50;;;;;;;;;;;12.60;68.80;;;;;;5015703;28;20069;-83
2022/03/03 12:42:21;;;;;;;14.85;8.27;;;12.80;68.90;;;;;;5014265;28;19927;-85
2022/03/03 12:45:09;;;;;;;13.80;8.80;;;12.90;67.20;;;;;;5015357;28;20049;-87
2022/03/03 12:47:42;;;;;;;13.45;7.95;;;12.90;64.80;;;;;;5014431;28;20092;-83